Terminal Aerodrome Forecast
Issued by NWS

Home | Current Version | Previous Version | Graphics & Text | Print | Product List | Glossary On
Versions: 1 2 3 4 5 6 7 8 9 10 11 12 13 14 15 16 17 18 19
000
FTUS43 KIWX 242330
TAFSBN
TAF
KSBN 242330Z 2500/2524 22021G28KT P6SM SCT050 BKN070
     FM250200 34006KT P6SM VCSH BKN060
     FM250600 27007KT 6SM -SHRA BR OVC025
     FM250900 20008KT 5SM SHRA BR OVC015
     FM251300 12010KT 2SM SHRA BR OVC009=

USA.gov is the U.S. government's official web portal to all federal, state and local government web resources and services.